Terminal Aerodrome Forecast
Issued by NWS Twin Cities, MN

Home | Current Version | Previous Version | Graphics & Text | Print | Product List | Glossary On
Versions: 1 2 3 4 5 6 7 8 9 10 11 12
633
FTUS43 KMPX 030520
TAFSTC
TAF
KSTC 030520Z 0306/0406 VRB03KT P6SM SKC
     FM031200 26007KT P6SM SCT250
     FM031500 27012G19KT P6SM SCT080 BKN250
     FM032100 31018G28KT P6SM SKC
     FM040100 34010KT P6SM SKC=

USA.gov is the U.S. government's official web portal to all federal, state and local government web resources and services.